createdAt,value
2022-12-22T00:02:23.025Z,38.05
2022-12-22T00:05:08.454Z,37.90
2022-12-22T00:07:53.749Z,40.60
2022-12-22T00:10:39.373Z,39.33
2022-12-22T00:13:29.365Z,37.38
2022-12-22T00:16:14.791Z,38.50
2022-12-22T00:19:00.411Z,38.00
2022-12-22T00:21:48.578Z,38.35
2022-12-22T00:24:34.153Z,37.35
2022-12-22T00:27:19.720Z,37.08
2022-12-22T00:30:05.272Z,36.53
2022-12-22T00:32:56.304Z,35.78
2022-12-22T00:35:43.848Z,36.67
2022-12-22T00:38:38.433Z,35.83
2022-12-22T00:41:24.499Z,34.47
2022-12-22T00:44:09.963Z,35.42
2022-12-22T00:46:58.532Z,35.00
2022-12-22T00:52:31.024Z,33.03
2022-12-22T00:55:16.470Z,32.00
2022-12-22T00:58:02.468Z,33.15
2022-12-22T01:00:47.878Z,33.28
2022-12-22T01:03:34.017Z,33.38
2022-12-22T01:06:21.386Z,33.92
2022-12-22T01:09:08.865Z,33.03
2022-12-22T01:11:55.404Z,34.42
2022-12-22T01:14:41.004Z,34.83
2022-12-22T01:17:28.801Z,34.92
2022-12-22T01:20:14.446Z,35.55
2022-12-22T01:23:00.545Z,36.38
2022-12-22T01:25:45.706Z,35.42
2022-12-22T01:28:35.355Z,35.80
2022-12-22T01:31:55.901Z,36.83
2022-12-22T01:34:41.559Z,35.47
2022-12-22T01:37:26.991Z,38.35
2022-12-22T01:40:12.276Z,36.40
2022-12-22T01:42:57.600Z,38.28
2022-12-22T01:45:54.812Z,36.90
2022-12-22T01:48:49.360Z,38.47
2022-12-22T01:51:44.076Z,37.47
2022-12-22T01:54:32.432Z,38.67
2022-12-22T01:57:18.015Z,38.80
2022-12-22T02:00:03.462Z,37.88
2022-12-22T02:02:51.469Z,36.13
2022-12-22T02:05:38.605Z,37.00
2022-12-22T02:08:46.064Z,38.42
2022-12-22T02:12:00.763Z,39.00
2022-12-22T02:15:04.820Z,38.17
2022-12-22T02:17:59.800Z,37.80
2022-12-22T02:21:10.361Z,40.00
2022-12-22T02:24:23.574Z,39.65
2022-12-22T02:27:12.844Z,40.22
2022-12-22T02:30:05.990Z,39.83
2022-12-22T02:33:05.395Z,39.85
2022-12-22T02:36:06.344Z,38.78
2022-12-22T02:38:59.750Z,39.17
2022-12-22T02:41:57.431Z,40.20
2022-12-22T02:45:24.941Z,39.17
2022-12-22T02:48:41.965Z,38.13
2022-12-22T02:51:37.976Z,38.30
2022-12-22T02:54:25.318Z,39.42
2022-12-22T02:57:10.735Z,37.13
2022-12-22T02:59:56.288Z,38.60
2022-12-22T03:02:41.827Z,38.17
2022-12-22T03:05:27.159Z,38.38
2022-12-22T03:08:13.036Z,37.95
2022-12-22T03:10:58.495Z,38.60
2022-12-22T03:13:44.051Z,38.38
2022-12-22T03:16:29.739Z,37.63
2022-12-22T03:19:15.124Z,38.85
2022-12-22T03:22:00.718Z,39.95
2022-12-22T03:24:46.178Z,39.92
2022-12-22T03:27:12.859Z,38.97
2022-12-22T03:29:39.504Z,39.90
2022-12-22T03:32:06.134Z,38.70
2022-12-22T03:34:32.809Z,40.53
2022-12-22T03:36:59.468Z,39.72
2022-12-22T03:39:26.217Z,38.95
2022-12-22T03:42:11.643Z,40.00
2022-12-22T03:44:57.379Z,38.97
2022-12-22T03:47:24.103Z,40.67
2022-12-22T03:49:50.716Z,39.70
2022-12-22T03:52:17.375Z,37.45
2022-12-22T03:54:44.043Z,38.35
2022-12-22T03:57:10.782Z,36.90
2022-12-22T03:59:37.505Z,37.05
2022-12-22T04:02:04.353Z,36.42
2022-12-22T04:04:31.224Z,37.45
2022-12-22T04:06:58.276Z,38.45
2022-12-22T04:09:27.042Z,37.47
2022-12-22T04:12:13.013Z,34.38
2022-12-22T04:14:39.816Z,33.42
2022-12-22T04:17:07.502Z,34.20
2022-12-22T04:19:34.344Z,34.28
2022-12-22T04:22:01.353Z,36.28
2022-12-22T04:24:28.211Z,32.58
2022-12-22T04:26:54.958Z,33.63
2022-12-22T04:29:21.623Z,34.75
2022-12-22T04:31:48.352Z,33.28
2022-12-22T04:34:15.105Z,36.00
2022-12-22T04:36:41.721Z,35.08
2022-12-22T04:39:08.399Z,34.13
2022-12-22T04:41:35.120Z,34.95
2022-12-22T04:44:01.742Z,35.83
2022-12-22T04:46:28.480Z,34.75
2022-12-22T04:48:59.879Z,33.15
2022-12-22T04:51:27.671Z,36.50
2022-12-22T04:53:54.360Z,37.33
2022-12-22T04:56:21.034Z,35.75
2022-12-22T04:58:47.766Z,33.88
2022-12-22T05:01:17.236Z,32.78
2022-12-22T05:03:44.137Z,33.25
2022-12-22T05:06:11.479Z,33.03
2022-12-22T05:08:38.669Z,30.80
2022-12-22T05:11:05.907Z,35.65
2022-12-22T05:13:32.938Z,34.95
2022-12-22T05:16:11.005Z,32.55
2022-12-22T05:18:38.990Z,30.45
2022-12-22T05:21:16.819Z,30.67
2022-12-22T05:23:44.215Z,30.88
2022-12-22T05:26:11.748Z,29.65
2022-12-22T05:28:38.388Z,28.25
2022-12-22T05:31:10.574Z,27.75
2022-12-22T05:33:37.782Z,27.30
2022-12-22T05:36:04.676Z,27.35
2022-12-22T05:38:31.384Z,26.35
2022-12-22T05:41:03.971Z,25.73
2022-12-22T05:43:35.232Z,25.30
2022-12-22T05:46:07.568Z,26.10
2022-12-22T05:48:38.517Z,25.35
2022-12-22T05:51:07.470Z,25.13
2022-12-22T05:53:34.143Z,25.45
2022-12-22T05:56:00.881Z,27.95
2022-12-22T05:58:27.509Z,27.75
2022-12-22T06:00:58.171Z,33.22
2022-12-22T06:03:26.418Z,30.83
2022-12-22T06:05:54.123Z,33.67
2022-12-22T06:08:20.786Z,34.22
2022-12-22T06:10:47.472Z,32.83
2022-12-22T06:13:14.488Z,29.48
2022-12-22T06:15:41.310Z,32.10
2022-12-22T06:18:07.947Z,31.25
2022-12-22T06:20:34.619Z,30.95
2022-12-22T06:23:01.263Z,32.33
2022-12-22T06:25:27.923Z,31.67
2022-12-22T06:27:54.586Z,31.35
2022-12-22T06:30:24.467Z,30.58
2022-12-22T06:32:54.174Z,32.13
2022-12-22T06:35:20.848Z,32.08
2022-12-22T06:37:47.554Z,31.20
2022-12-22T06:40:14.264Z,31.55
2022-12-22T06:43:04.125Z,29.55
2022-12-22T06:45:36.116Z,30.80
2022-12-22T06:48:03.007Z,32.03
2022-12-22T06:50:29.972Z,30.75
2022-12-22T06:52:57.013Z,28.63
2022-12-22T06:55:23.676Z,27.35
2022-12-22T06:57:50.443Z,28.83
2022-12-22T07:00:17.546Z,27.85
2022-12-22T07:02:44.576Z,26.20
2022-12-22T07:05:11.527Z,26.67
2022-12-22T07:07:38.217Z,27.08
2022-12-22T07:10:05.532Z,27.33
2022-12-22T07:12:32.279Z,25.33
2022-12-22T07:14:59.011Z,27.58
2022-12-22T07:17:25.644Z,24.90
2022-12-22T07:19:52.358Z,26.70
2022-12-22T07:22:22.839Z,24.73
2022-12-22T07:24:52.369Z,23.60
2022-12-22T07:27:19.026Z,24.33
2022-12-22T07:29:45.664Z,21.25
2022-12-22T07:32:12.414Z,21.77
2022-12-22T07:34:39.057Z,21.67
2022-12-22T07:37:05.731Z,21.52
2022-12-22T07:39:32.392Z,21.27
2022-12-22T07:42:17.501Z,21.25
2022-12-22T07:44:44.143Z,21.05
2022-12-22T07:47:10.803Z,22.42
2022-12-22T07:49:56.271Z,21.75
2022-12-22T07:52:22.939Z,20.52
2022-12-22T07:54:49.557Z,22.38
2022-12-22T07:57:16.180Z,21.70
2022-12-22T07:59:42.923Z,20.35
2022-12-22T08:02:11.678Z,21.23
2022-12-22T08:04:38.555Z,21.70
2022-12-22T08:07:05.225Z,19.58
2022-12-22T08:09:31.854Z,18.45
2022-12-22T08:11:58.503Z,19.13
2022-12-22T08:14:25.207Z,18.08
2022-12-22T08:16:52.053Z,16.90
2022-12-22T08:19:18.762Z,16.98
2022-12-22T08:21:52.110Z,16.27
2022-12-22T08:24:19.749Z,16.63
2022-12-22T08:26:49.621Z,14.98
2022-12-22T08:29:25.469Z,12.13
2022-12-22T08:31:52.258Z,12.50
2022-12-22T08:34:19.031Z,12.30
2022-12-22T08:36:56.597Z,12.15
2022-12-22T08:39:25.622Z,12.32
2022-12-22T08:41:52.566Z,12.32
2022-12-22T08:44:23.817Z,10.90
2022-12-22T08:46:51.231Z,11.45
2022-12-22T08:49:18.439Z,10.90
2022-12-22T08:51:46.635Z,12.05
2022-12-22T08:54:14.023Z,11.98
2022-12-22T08:56:40.686Z,12.25
2022-12-22T08:59:08.165Z,13.45
2022-12-22T09:01:39.585Z,14.68
2022-12-22T09:04:09.664Z,13.63
2022-12-22T09:06:40.998Z,13.65
2022-12-22T09:09:10.054Z,14.48
2022-12-22T09:14:06.102Z,13.45
2022-12-22T09:16:35.111Z,14.30
2022-12-22T09:19:03.071Z,13.90
2022-12-22T09:21:30.189Z,14.33
2022-12-22T09:23:57.236Z,12.98
2022-12-22T09:26:26.374Z,12.00
2022-12-22T09:28:53.553Z,13.05
2022-12-22T09:31:21.798Z,11.93
2022-12-22T09:33:49.089Z,10.95
2022-12-22T09:36:18.457Z,10.88
2022-12-22T09:38:45.322Z,10.98
2022-12-22T09:41:32.640Z,10.10
2022-12-22T09:44:27.851Z,10.60
2022-12-22T09:46:57.575Z,11.10
2022-12-22T09:49:24.701Z,11.20
2022-12-22T09:51:58.673Z,11.20
2022-12-22T09:54:26.894Z,11.05
2022-12-22T09:56:53.580Z,11.55
2022-12-22T09:59:21.563Z,10.80
2022-12-22T10:02:12.662Z,10.05
2022-12-22T10:04:43.418Z,9.40
2022-12-22T10:07:16.066Z,10.02
2022-12-22T10:09:51.516Z,9.88
2022-12-22T10:12:22.057Z,9.15
2022-12-22T10:14:50.887Z,9.68
2022-12-22T10:17:29.013Z,9.15
2022-12-22T10:20:28.095Z,10.10
2022-12-22T10:23:01.061Z,9.27
2022-12-22T10:25:39.798Z,10.57
2022-12-22T10:28:21.885Z,10.23
2022-12-22T10:30:48.631Z,9.93
2022-12-22T10:33:17.645Z,9.07
2022-12-22T10:35:53.605Z,9.77
2022-12-22T10:38:30.656Z,10.73
2022-12-22T10:41:02.477Z,9.60
2022-12-22T10:43:38.642Z,9.32
2022-12-22T10:46:05.991Z,9.57
2022-12-22T10:48:35.770Z,9.23
2022-12-22T10:51:05.792Z,9.13
2022-12-22T10:53:46.310Z,9.38
2022-12-22T10:56:22.207Z,8.73
2022-12-22T10:59:18.818Z,8.73
2022-12-22T11:01:45.899Z,8.68
2022-12-22T11:04:24.988Z,8.40
2022-12-22T11:06:53.576Z,8.45
2022-12-22T11:09:36.063Z,8.65
2022-12-22T11:12:21.649Z,9.32
2022-12-22T11:15:00.386Z,8.38
2022-12-22T11:17:55.275Z,7.00
2022-12-22T11:20:31.298Z,8.65
2022-12-22T11:23:21.441Z,8.82
2022-12-22T11:26:14.033Z,8.60
2022-12-22T11:28:56.117Z,8.77
2022-12-22T11:31:48.353Z,6.53
2022-12-22T11:35:05.617Z,5.30
2022-12-22T11:37:56.469Z,5.43
2022-12-22T11:40:32.000Z,5.13
2022-12-22T11:43:13.781Z,4.18
2022-12-22T11:46:04.456Z,4.30
2022-12-22T11:48:58.800Z,4.20
2022-12-22T11:51:39.905Z,5.18
2022-12-22T11:54:35.257Z,3.58
2022-12-22T11:57:31.879Z,4.00
2022-12-22T12:00:13.823Z,3.63
2022-12-22T12:03:17.141Z,3.58
2022-12-22T12:06:19.211Z,4.05
2022-12-22T12:08:58.205Z,3.67
2022-12-22T12:11:30.484Z,4.20
2022-12-22T12:14:35.010Z,3.88
2022-12-22T12:17:24.687Z,3.50
2022-12-22T12:20:11.828Z,4.55
2022-12-22T12:22:58.622Z,3.85
2022-12-22T12:26:03.789Z,4.25
2022-12-22T12:29:02.974Z,4.15
2022-12-22T12:31:37.826Z,4.05
2022-12-22T12:34:10.063Z,4.15
2022-12-22T12:37:13.439Z,4.35
2022-12-22T12:39:54.443Z,6.03
2022-12-22T12:42:32.445Z,5.40
2022-12-22T12:45:09.615Z,5.70
2022-12-22T12:47:36.297Z,6.97
2022-12-22T12:50:26.685Z,7.32
2022-12-22T12:52:53.268Z,8.30
2022-12-22T12:55:46.320Z,8.75
2022-12-22T12:58:39.127Z,12.23
2022-12-22T13:01:12.995Z,14.07
2022-12-22T13:06:49.901Z,13.73
2022-12-22T13:12:39.771Z,16.08
2022-12-22T13:15:26.461Z,17.48
2022-12-22T13:17:53.180Z,17.38
2022-12-22T13:20:35.898Z,18.83
2022-12-22T13:23:10.346Z,19.05
2022-12-22T13:25:56.621Z,18.95
2022-12-22T13:28:23.876Z,19.90
2022-12-22T13:31:04.836Z,19.73
2022-12-22T13:33:37.855Z,19.83
2022-12-22T13:36:08.497Z,19.90
2022-12-22T13:38:38.096Z,20.00
2022-12-22T13:41:23.107Z,20.35
2022-12-22T13:44:01.314Z,20.17
2022-12-22T13:46:28.096Z,19.90
2022-12-22T13:48:57.192Z,20.58
2022-12-22T13:51:28.606Z,20.42
2022-12-22T13:54:08.524Z,19.77
2022-12-22T13:56:46.125Z,21.20
2022-12-22T13:59:29.382Z,21.63
2022-12-22T14:02:13.915Z,22.00
2022-12-22T14:04:44.045Z,22.20
2022-12-22T14:07:14.760Z,23.73
2022-12-22T14:09:49.194Z,21.35
2022-12-22T14:12:19.339Z,22.42
2022-12-22T14:14:49.161Z,22.15
2022-12-22T14:17:20.146Z,22.33
2022-12-22T14:19:51.356Z,22.92
2022-12-22T14:22:46.364Z,22.58
2022-12-22T14:25:50.348Z,23.50
2022-12-22T14:28:50.320Z,23.45
2022-12-22T14:31:18.112Z,24.02
2022-12-22T14:33:53.708Z,26.05
2022-12-22T14:36:25.875Z,24.98
2022-12-22T14:39:03.990Z,26.75
2022-12-22T14:41:46.867Z,25.50
2022-12-22T14:44:37.833Z,25.70
2022-12-22T14:47:17.536Z,24.63
2022-12-22T14:49:53.923Z,25.75
2022-12-22T14:52:45.283Z,26.10
2022-12-22T14:55:42.270Z,25.73
2022-12-22T14:58:16.175Z,25.88
2022-12-22T15:00:48.528Z,26.23
2022-12-22T15:03:35.062Z,27.75
2022-12-22T15:06:26.784Z,27.83
2022-12-22T15:09:47.614Z,25.73
2022-12-22T15:12:14.255Z,25.80
2022-12-22T15:14:41.916Z,26.30
2022-12-22T15:17:25.433Z,28.02
2022-12-22T15:19:57.724Z,28.67
2022-12-22T15:22:25.497Z,32.25
2022-12-22T15:24:52.355Z,32.03
2022-12-22T15:27:19.039Z,28.00
2022-12-22T15:29:45.684Z,29.63
2022-12-22T15:32:13.382Z,30.30
2022-12-22T15:34:40.291Z,28.33
2022-12-22T15:37:06.957Z,29.42
2022-12-22T15:39:33.584Z,29.10
2022-12-22T15:42:00.306Z,28.23
2022-12-22T15:44:26.965Z,29.65
2022-12-22T15:46:58.826Z,29.15
2022-12-22T15:49:27.678Z,28.70
2022-12-22T15:51:58.709Z,30.02
2022-12-22T15:54:27.826Z,31.13
2022-12-22T15:56:55.258Z,29.98
2022-12-22T15:59:27.945Z,31.90
2022-12-22T16:02:01.313Z,30.38
2022-12-22T16:04:29.332Z,29.23
2022-12-22T16:06:57.053Z,32.22
2022-12-22T16:09:27.614Z,30.87
2022-12-22T16:11:54.542Z,32.65
2022-12-22T16:14:22.342Z,31.40
2022-12-22T16:16:49.113Z,30.73
2022-12-22T16:19:17.707Z,32.08
2022-12-22T16:21:47.415Z,33.05
2022-12-22T16:24:35.537Z,32.72
2022-12-22T16:27:03.076Z,30.17
2022-12-22T16:29:30.195Z,31.50
2022-12-22T16:32:27.908Z,30.35
2022-12-22T16:35:12.805Z,27.88
2022-12-22T16:37:39.575Z,29.23
2022-12-22T16:40:07.110Z,28.75
2022-12-22T16:45:22.865Z,25.60
2022-12-22T16:47:52.368Z,27.08
2022-12-22T16:50:22.400Z,25.13
2022-12-22T16:52:50.046Z,24.52
2022-12-22T16:55:25.942Z,24.63
2022-12-22T16:57:54.818Z,24.40
2022-12-22T17:00:24.544Z,23.02
2022-12-22T17:02:58.539Z,21.35
2022-12-22T17:05:29.670Z,21.23
2022-12-22T17:07:59.291Z,19.73
2022-12-22T17:10:26.201Z,18.30
2022-12-22T17:12:56.627Z,19.27
2022-12-22T17:15:24.789Z,17.30
2022-12-22T17:17:52.261Z,17.83
2022-12-22T17:20:22.006Z,16.90
2022-12-22T17:22:57.408Z,16.27
2022-12-22T17:25:27.527Z,16.70
2022-12-22T17:27:56.161Z,17.70
2022-12-22T17:30:24.452Z,22.75
2022-12-22T17:32:54.556Z,17.88
2022-12-22T17:35:25.223Z,16.92
2022-12-22T17:37:53.148Z,17.45
2022-12-22T17:40:30.547Z,19.33
2022-12-22T17:43:00.447Z,28.20
2022-12-22T17:45:27.276Z,20.63
2022-12-22T17:47:53.995Z,26.95
2022-12-22T17:50:23.085Z,17.70
2022-12-22T17:52:50.052Z,24.73
2022-12-22T17:55:19.825Z,20.60
2022-12-22T17:57:53.826Z,14.57
2022-12-22T18:00:26.348Z,15.82
2022-12-22T18:02:53.343Z,17.30
2022-12-22T18:05:22.772Z,15.55
2022-12-22T18:07:50.844Z,14.90
2022-12-22T18:10:25.370Z,14.65
2022-12-22T18:12:52.914Z,14.30
2022-12-22T18:15:20.931Z,13.25
2022-12-22T18:17:47.704Z,13.38
2022-12-22T18:20:16.757Z,11.23
2022-12-22T18:22:44.069Z,11.98
2022-12-22T18:25:22.490Z,13.18
2022-12-22T18:27:49.392Z,12.45
2022-12-22T18:30:21.795Z,11.48
2022-12-22T18:32:50.082Z,11.18
2022-12-22T18:35:17.687Z,10.80
2022-12-22T18:37:44.431Z,10.40
2022-12-22T18:40:34.151Z,11.20
2022-12-22T18:43:01.786Z,11.50
2022-12-22T18:45:30.389Z,11.77
2022-12-22T18:47:57.785Z,11.95
2022-12-22T18:50:27.871Z,11.88
2022-12-22T18:52:57.198Z,11.75
2022-12-22T18:55:26.539Z,12.65
2022-12-22T18:57:55.077Z,12.75
2022-12-22T19:00:24.556Z,13.65
2022-12-22T19:02:53.555Z,13.60
2022-12-22T19:05:23.586Z,14.23
2022-12-22T19:07:51.267Z,15.00
2022-12-22T19:10:22.861Z,15.27
2022-12-22T19:12:52.056Z,15.40
2022-12-22T19:15:27.568Z,16.27
2022-12-22T19:17:54.447Z,17.92
2022-12-22T19:20:24.083Z,16.83
2022-12-22T19:22:51.436Z,17.60
2022-12-22T19:25:24.128Z,18.25
2022-12-22T19:27:53.490Z,19.05
2022-12-22T19:30:26.029Z,19.73
2022-12-22T19:33:01.584Z,19.35
2022-12-22T19:35:30.765Z,18.52
2022-12-22T19:38:00.538Z,19.70
2022-12-22T19:40:33.154Z,20.13
2022-12-22T19:43:00.136Z,20.30
2022-12-22T19:45:30.257Z,19.60
2022-12-22T19:47:57.689Z,21.05
2022-12-22T19:50:26.796Z,22.00
2022-12-22T19:52:55.391Z,22.60
2022-12-22T19:55:24.659Z,22.40
2022-12-22T19:57:52.229Z,22.88
2022-12-22T20:00:22.176Z,23.95
2022-12-22T20:02:51.915Z,24.10
2022-12-22T20:05:24.308Z,23.40
2022-12-22T20:07:52.101Z,23.55
2022-12-22T20:10:19.910Z,24.43
2022-12-22T20:12:48.660Z,24.67
2022-12-22T20:17:47.956Z,24.67
2022-12-22T20:20:16.831Z,23.58
2022-12-22T20:23:11.858Z,22.45
2022-12-22T20:25:41.903Z,24.73
2022-12-22T20:28:14.118Z,24.25
2022-12-22T20:30:40.857Z,24.10
2022-12-22T20:33:07.672Z,24.48
2022-12-22T20:35:36.724Z,23.17
2022-12-22T20:38:30.705Z,31.65
2022-12-22T20:40:57.771Z,19.85
2022-12-22T20:43:26.914Z,19.95
2022-12-22T20:45:57.322Z,18.83
2022-12-22T20:48:23.924Z,19.17
2022-12-22T20:50:50.678Z,19.30
2022-12-22T20:53:19.417Z,20.30
2022-12-22T20:58:27.533Z,18.23
2022-12-22T21:00:56.992Z,19.60
2022-12-22T21:03:24.632Z,18.20
2022-12-22T21:05:51.654Z,18.90
2022-12-22T21:08:21.896Z,18.83
2022-12-22T21:10:49.979Z,20.05
2022-12-22T21:13:16.987Z,20.13
2022-12-22T21:15:45.543Z,18.88
2022-12-22T21:18:18.066Z,19.38
2022-12-22T21:20:45.059Z,20.90
2022-12-22T21:23:14.047Z,20.73
2022-12-22T21:25:46.562Z,18.73
2022-12-22T21:28:26.273Z,19.45
2022-12-22T21:30:52.943Z,20.30
2022-12-22T21:33:19.624Z,18.27
2022-12-22T21:35:49.659Z,19.13
2022-12-22T21:38:21.160Z,18.65
2022-12-22T21:40:48.020Z,19.73
2022-12-22T21:43:15.871Z,18.58
2022-12-22T21:45:44.066Z,19.83
2022-12-22T21:48:20.855Z,17.30
2022-12-22T21:50:50.251Z,14.82
2022-12-22T21:53:22.087Z,15.35
2022-12-22T21:55:49.545Z,15.07
2022-12-22T21:58:16.463Z,13.27
2022-12-22T22:00:47.465Z,11.40
2022-12-22T22:03:15.318Z,11.48
2022-12-22T22:05:43.176Z,11.20
2022-12-22T22:08:12.145Z,11.60
2022-12-22T22:10:42.105Z,12.48
2022-12-22T22:13:12.507Z,12.52
2022-12-22T22:15:39.202Z,10.85
2022-12-22T22:18:07.567Z,11.18
2022-12-22T22:20:35.161Z,11.52
2022-12-22T22:23:01.914Z,11.32
2022-12-22T22:25:28.623Z,10.07
2022-12-22T22:27:59.456Z,10.32
2022-12-22T22:30:26.629Z,11.13
2022-12-22T22:32:54.602Z,10.40
2022-12-22T22:35:22.609Z,10.07
2022-12-22T22:37:52.156Z,9.55
2022-12-22T22:40:21.601Z,10.68
2022-12-22T22:42:48.681Z,10.85
2022-12-22T22:45:22.916Z,10.07
2022-12-22T22:47:53.807Z,10.80
2022-12-22T22:50:21.939Z,10.70
2022-12-22T22:52:49.131Z,9.52
2022-12-22T22:55:15.993Z,10.68
2022-12-22T22:57:43.079Z,9.95
2022-12-22T23:00:11.852Z,10.40
2022-12-22T23:02:38.819Z,10.40
2022-12-22T23:05:06.495Z,11.20
2022-12-22T23:07:34.360Z,11.05
2022-12-22T23:10:01.192Z,9.90
2022-12-22T23:12:27.974Z,9.98
2022-12-22T23:14:54.622Z,11.85
2022-12-22T23:17:21.310Z,10.43
2022-12-22T23:19:48.046Z,11.57
2022-12-22T23:22:14.708Z,12.13
2022-12-22T23:24:41.372Z,11.98
2022-12-22T23:27:08.054Z,11.15
2022-12-22T23:29:36.673Z,11.68
2022-12-22T23:32:03.522Z,10.20
2022-12-22T23:34:30.387Z,10.95
2022-12-22T23:36:57.086Z,11.82
2022-12-22T23:39:24.002Z,11.00
2022-12-22T23:41:50.662Z,11.55
2022-12-22T23:44:17.362Z,12.30
2022-12-22T23:46:44.141Z,12.45
2022-12-22T23:49:11.792Z,14.77
2022-12-22T23:51:38.502Z,14.07
2022-12-22T23:54:05.367Z,14.82
2022-12-22T23:56:32.360Z,15.25
2022-12-22T23:58:59.091Z,15.60
